sensor_id;sensor_type;location;lat;lon;timestamp;pressure;altitude;pressure_sealevel;temperature;humidity
43480;BME280;29067;35.492;-97.520;2023-02-10T00:01:58;97833.13;;;5.19;43.47
43480;BME280;29067;35.492;-97.520;2023-02-10T00:04:26;97839.35;;;4.73;43.59
43480;BME280;29067;35.492;-97.520;2023-02-10T00:06:53;97843.53;;;4.55;42.97
43480;BME280;29067;35.492;-97.520;2023-02-10T00:09:21;97844.26;;;4.98;42.80
43480;BME280;29067;35.492;-97.520;2023-02-10T00:11:49;97846.49;;;4.76;42.76
43480;BME280;29067;35.492;-97.520;2023-02-10T00:14:18;97847.33;;;5.15;42.75
43480;BME280;29067;35.492;-97.520;2023-02-10T00:16:50;97849.21;;;4.30;43.16
43480;BME280;29067;35.492;-97.520;2023-02-10T00:19:19;97851.17;;;5.14;43.17
43480;BME280;29067;35.492;-97.520;2023-02-10T00:21:47;97858.34;;;5.09;43.11
43480;BME280;29067;35.492;-97.520;2023-02-10T00:24:16;97861.84;;;4.37;43.57
43480;BME280;29067;35.492;-97.520;2023-02-10T00:26:45;97863.98;;;4.92;43.01
43480;BME280;29067;35.492;-97.520;2023-02-10T00:29:13;97864.74;;;5.20;43.12
43480;BME280;29067;35.492;-97.520;2023-02-10T00:31:42;97866.70;;;5.54;42.74
43480;BME280;29067;35.492;-97.520;2023-02-10T00:34:11;97869.79;;;5.68;42.36
43480;BME280;29067;35.492;-97.520;2023-02-10T00:36:40;97872.56;;;4.85;42.83
43480;BME280;29067;35.492;-97.520;2023-02-10T00:39:13;97870.35;;;5.77;42.90
43480;BME280;29067;35.492;-97.520;2023-02-10T00:41:41;97872.49;;;4.27;44.33
43480;BME280;29067;35.492;-97.520;2023-02-10T00:44:10;97884.00;;;4.82;44.20
43480;BME280;29067;35.492;-97.520;2023-02-10T00:46:38;97887.81;;;5.46;43.13
43480;BME280;29067;35.492;-97.520;2023-02-10T00:49:06;97888.07;;;4.46;44.03
43480;BME280;29067;35.492;-97.520;2023-02-10T00:51:34;97889.78;;;4.70;44.02
43480;BME280;29067;35.492;-97.520;2023-02-10T00:54:02;97897.78;;;4.60;43.89
43480;BME280;29067;35.492;-97.520;2023-02-10T00:56:30;97899.62;;;5.73;42.57
43480;BME280;29067;35.492;-97.520;2023-02-10T00:58:58;97903.38;;;5.87;42.87
43480;BME280;29067;35.492;-97.520;2023-02-10T01:01:26;97914.78;;;4.95;43.25
43480;BME280;29067;35.492;-97.520;2023-02-10T01:03:54;97912.33;;;5.68;43.08
43480;BME280;29067;35.492;-97.520;2023-02-10T01:06:22;97915.26;;;5.63;42.40
43480;BME280;29067;35.492;-97.520;2023-02-10T01:08:50;97916.08;;;5.48;42.68
43480;BME280;29067;35.492;-97.520;2023-02-10T01:11:18;97924.64;;;4.38;43.79
43480;BME280;29067;35.492;-97.520;2023-02-10T01:13:46;97929.94;;;5.32;43.00
43480;BME280;29067;35.492;-97.520;2023-02-10T01:16:15;97933.40;;;5.49;42.76
43480;BME280;29067;35.492;-97.520;2023-02-10T01:18:45;97935.57;;;6.30;41.95
43480;BME280;29067;35.492;-97.520;2023-02-10T01:21:16;97935.62;;;5.71;42.37
43480;BME280;29067;35.492;-97.520;2023-02-10T01:23:44;97947.90;;;5.28;43.23
43480;BME280;29067;35.492;-97.520;2023-02-10T01:26:13;97946.32;;;3.90;43.98
43480;BME280;29067;35.492;-97.520;2023-02-10T01:28:41;97955.47;;;4.16;45.29
43480;BME280;29067;35.492;-97.520;2023-02-10T01:31:12;97957.07;;;3.62;45.11
43480;BME280;29067;35.492;-97.520;2023-02-10T01:33:40;97957.13;;;3.97;44.86
43480;BME280;29067;35.492;-97.520;2023-02-10T01:36:11;97966.18;;;3.45;45.31
43480;BME280;29067;35.492;-97.520;2023-02-10T01:38:39;97975.65;;;3.72;44.91
43480;BME280;29067;35.492;-97.520;2023-02-10T01:41:07;97986.14;;;3.35;45.03
43480;BME280;29067;35.492;-97.520;2023-02-10T01:43:54;97984.34;;;4.23;44.59
43480;BME280;29067;35.492;-97.520;2023-02-10T01:46:22;97996.13;;;2.91;46.23
43480;BME280;29067;35.492;-97.520;2023-02-10T01:48:50;98003.05;;;3.38;46.47
43480;BME280;29067;35.492;-97.520;2023-02-10T01:51:21;98009.56;;;2.93;46.71
43480;BME280;29067;35.492;-97.520;2023-02-10T01:53:50;98014.35;;;3.71;45.75
43480;BME280;29067;35.492;-97.520;2023-02-10T01:56:19;98020.09;;;4.12;45.28
43480;BME280;29067;35.492;-97.520;2023-02-10T01:58:47;98027.23;;;3.69;45.07
43480;BME280;29067;35.492;-97.520;2023-02-10T02:01:16;98030.67;;;3.23;46.25
43480;BME280;29067;35.492;-97.520;2023-02-10T02:03:44;98035.75;;;3.43;45.04
43480;BME280;29067;35.492;-97.520;2023-02-10T02:06:13;98041.97;;;3.83;45.79
43480;BME280;29067;35.492;-97.520;2023-02-10T02:08:41;98049.44;;;4.24;44.73
43480;BME280;29067;35.492;-97.520;2023-02-10T02:11:16;98059.16;;;3.49;45.63
43480;BME280;29067;35.492;-97.520;2023-02-10T02:13:59;98054.55;;;3.27;45.65
43480;BME280;29067;35.492;-97.520;2023-02-10T02:16:43;98062.32;;;1.97;46.07
43480;BME280;29067;35.492;-97.520;2023-02-10T02:19:42;98063.70;;;2.17;46.80
43480;BME280;29067;35.492;-97.520;2023-02-10T02:22:32;98066.73;;;2.90;45.87
43480;BME280;29067;35.492;-97.520;2023-02-10T02:25:25;98081.84;;;2.09;46.96
43480;BME280;29067;35.492;-97.520;2023-02-10T02:28:08;98100.50;;;1.81;48.63
43480;BME280;29067;35.492;-97.520;2023-02-10T02:30:58;98103.77;;;1.62;48.23
43480;BME280;29067;35.492;-97.520;2023-02-10T02:33:33;98117.79;;;2.01;49.09
43480;BME280;29067;35.492;-97.520;2023-02-10T02:36:10;98117.32;;;1.92;48.49
43480;BME280;29067;35.492;-97.520;2023-02-10T02:38:39;98129.34;;;2.20;48.56
43480;BME280;29067;35.492;-97.520;2023-02-10T02:41:08;98137.96;;;1.44;49.40
43480;BME280;29067;35.492;-97.520;2023-02-10T02:43:36;98138.26;;;1.52;49.11
43480;BME280;29067;35.492;-97.520;2023-02-10T02:46:22;98149.04;;;2.22;49.42
43480;BME280;29067;35.492;-97.520;2023-02-10T02:49:00;98159.14;;;2.18;49.10
43480;BME280;29067;35.492;-97.520;2023-02-10T02:51:39;98157.01;;;2.35;49.06
43480;BME280;29067;35.492;-97.520;2023-02-10T02:54:16;98164.08;;;1.37;49.97
43480;BME280;29067;35.492;-97.520;2023-02-10T02:56:55;98175.94;;;1.12;50.36
43480;BME280;29067;35.492;-97.520;2023-02-10T02:59:32;98188.69;;;-0.38;52.30
43480;BME280;29067;35.492;-97.520;2023-02-10T03:02:06;98188.09;;;0.40;51.27
43480;BME280;29067;35.492;-97.520;2023-02-10T03:04:37;98191.78;;;0.78;50.53
43480;BME280;29067;35.492;-97.520;2023-02-10T03:07:06;98190.63;;;1.05;49.92
43480;BME280;29067;35.492;-97.520;2023-02-10T03:09:35;98197.70;;;0.51;50.23
43480;BME280;29067;35.492;-97.520;2023-02-10T03:12:04;98200.89;;;1.36;49.88
43480;BME280;29067;35.492;-97.520;2023-02-10T03:14:33;98201.24;;;1.32;50.50
43480;BME280;29067;35.492;-97.520;2023-02-10T03:17:06;98210.30;;;1.25;50.92
43480;BME280;29067;35.492;-97.520;2023-02-10T03:35:57;98244.25;;;1.75;52.73
43480;BME280;29067;35.492;-97.520;2023-02-10T03:38:27;98247.44;;;-2.11;52.68
43480;BME280;29067;35.492;-97.520;2023-02-10T03:40:55;98253.48;;;-0.26;52.57
43480;BME280;29067;35.492;-97.520;2023-02-10T03:43:24;98255.11;;;0.44;52.57
43480;BME280;29067;35.492;-97.520;2023-02-10T03:45:52;98253.18;;;0.76;52.09
43480;BME280;29067;35.492;-97.520;2023-02-10T03:48:20;98258.43;;;1.55;50.88
43480;BME280;29067;35.492;-97.520;2023-02-10T03:50:48;98254.25;;;0.91;51.73
43480;BME280;29067;35.492;-97.520;2023-02-10T03:53:17;98262.10;;;0.94;50.92
43480;BME280;29067;35.492;-97.520;2023-02-10T03:55:45;98259.50;;;2.03;49.52
43480;BME280;29067;35.492;-97.520;2023-02-10T03:58:13;98268.87;;;0.46;51.66
43480;BME280;29067;35.492;-97.520;2023-02-10T04:00:41;98267.57;;;1.15;51.88
43480;BME280;29067;35.492;-97.520;2023-02-10T04:03:09;98270.67;;;0.46;51.66
43480;BME280;29067;35.492;-97.520;2023-02-10T04:05:38;98273.54;;;1.26;50.88
43480;BME280;29067;35.492;-97.520;2023-02-10T04:08:06;98272.67;;;1.39;50.14
43480;BME280;29067;35.492;-97.520;2023-02-10T04:10:35;98277.29;;;1.37;50.12
43480;BME280;29067;35.492;-97.520;2023-02-10T04:13:03;98281.72;;;1.26;50.55
43480;BME280;29067;35.492;-97.520;2023-02-10T04:15:31;98284.84;;;1.41;49.98
43480;BME280;29067;35.492;-97.520;2023-02-10T04:17:59;98286.97;;;0.48;51.15
43480;BME280;29067;35.492;-97.520;2023-02-10T04:20:27;98288.05;;;0.75;52.00
43480;BME280;29067;35.492;-97.520;2023-02-10T04:22:55;98289.92;;;0.45;52.78
43480;BME280;29067;35.492;-97.520;2023-02-10T04:25:23;98291.16;;;0.87;51.76
43480;BME280;29067;35.492;-97.520;2023-02-10T04:27:51;98298.96;;;-0.04;53.41
43480;BME280;29067;35.492;-97.520;2023-02-10T04:30:19;98307.44;;;-0.30;54.41
43480;BME280;29067;35.492;-97.520;2023-02-10T04:32:47;98308.62;;;1.25;51.66
43480;BME280;29067;35.492;-97.520;2023-02-10T04:35:15;98314.86;;;0.42;52.57
43480;BME280;29067;35.492;-97.520;2023-02-10T04:37:43;98319.06;;;0.80;52.71
43480;BME280;29067;35.492;-97.520;2023-02-10T04:40:13;98322.70;;;0.85;52.39
43480;BME280;29067;35.492;-97.520;2023-02-10T04:42:41;98316.21;;;1.65;51.46
43480;BME280;29067;35.492;-97.520;2023-02-10T04:45:09;98323.32;;;-0.02;54.78
43480;BME280;29067;35.492;-97.520;2023-02-10T04:47:37;98325.34;;;1.07;52.91
43480;BME280;29067;35.492;-97.520;2023-02-10T04:50:06;98328.89;;;1.44;51.76
43480;BME280;29067;35.492;-97.520;2023-02-10T04:52:34;98328.51;;;0.15;53.59
43480;BME280;29067;35.492;-97.520;2023-02-10T04:55:03;98336.13;;;0.44;54.27
43480;BME280;29067;35.492;-97.520;2023-02-10T04:57:30;98341.21;;;0.48;53.36
43480;BME280;29067;35.492;-97.520;2023-02-10T04:59:58;98346.34;;;0.88;53.28
43480;BME280;29067;35.492;-97.520;2023-02-10T05:02:26;98348.68;;;0.23;53.94
43480;BME280;29067;35.492;-97.520;2023-02-10T05:04:54;98349.21;;;1.30;53.15
43480;BME280;29067;35.492;-97.520;2023-02-10T05:07:22;98354.22;;;0.64;53.48
43480;BME280;29067;35.492;-97.520;2023-02-10T05:09:50;98358.02;;;1.02;52.61
43480;BME280;29067;35.492;-97.520;2023-02-10T05:12:18;98359.65;;;1.11;53.16
43480;BME280;29067;35.492;-97.520;2023-02-10T05:14:46;98359.91;;;0.76;53.17
43480;BME280;29067;35.492;-97.520;2023-02-10T05:17:14;98362.81;;;0.62;54.22
43480;BME280;29067;35.492;-97.520;2023-02-10T05:19:42;98362.02;;;0.28;53.26
43480;BME280;29067;35.492;-97.520;2023-02-10T05:22:10;98360.68;;;0.37;53.67
43480;BME280;29067;35.492;-97.520;2023-02-10T05:24:38;98362.27;;;0.77;52.67
43480;BME280;29067;35.492;-97.520;2023-02-10T05:27:06;98361.80;;;0.51;52.85
43480;BME280;29067;35.492;-97.520;2023-02-10T05:29:34;98364.14;;;0.76;52.54
43480;BME280;29067;35.492;-97.520;2023-02-10T05:32:02;98370.97;;;0.20;53.40
43480;BME280;29067;35.492;-97.520;2023-02-10T05:34:30;98381.47;;;0.02;54.82
43480;BME280;29067;35.492;-97.520;2023-02-10T05:36:58;98384.07;;;0.04;54.88
43480;BME280;29067;35.492;-97.520;2023-02-10T05:39:26;98384.19;;;1.09;53.40
43480;BME280;29067;35.492;-97.520;2023-02-10T05:41:57;98388.76;;;0.81;53.21
43480;BME280;29067;35.492;-97.520;2023-02-10T05:44:28;98391.18;;;-0.18;54.95
43480;BME280;29067;35.492;-97.520;2023-02-10T05:46:57;98400.64;;;-1.62;57.64
43480;BME280;29067;35.492;-97.520;2023-02-10T05:49:25;98396.33;;;-1.08;56.99
43480;BME280;29067;35.492;-97.520;2023-02-10T05:51:54;98400.37;;;0.03;56.34
43480;BME280;29067;35.492;-97.520;2023-02-10T05:54:22;98400.32;;;0.32;54.22
43480;BME280;29067;35.492;-97.520;2023-02-10T05:56:50;98403.33;;;0.21;54.54
43480;BME280;29067;35.492;-97.520;2023-02-10T05:59:18;98405.53;;;-0.33;55.87
43480;BME280;29067;35.492;-97.520;2023-02-10T06:01:46;98410.34;;;-0.36;56.47
43480;BME280;29067;35.492;-97.520;2023-02-10T06:04:14;98405.21;;;-0.79;55.92
43480;BME280;29067;35.492;-97.520;2023-02-10T06:06:42;98399.27;;;0.78;53.88
43480;BME280;29067;35.492;-97.520;2023-02-10T06:09:11;98406.10;;;-0.66;55.41
43480;BME280;29067;35.492;-97.520;2023-02-10T06:11:39;98406.20;;;-0.51;55.09
43480;BME280;29067;35.492;-97.520;2023-02-10T06:14:12;98405.58;;;1.38;52.91
43480;BME280;29067;35.492;-97.520;2023-02-10T06:16:40;98407.95;;;0.73;53.87
43480;BME280;29067;35.492;-97.520;2023-02-10T06:19:09;98415.00;;;0.75;53.85
43480;BME280;29067;35.492;-97.520;2023-02-10T06:21:37;98414.89;;;0.99;54.56
43480;BME280;29067;35.492;-97.520;2023-02-10T06:24:10;98417.91;;;0.03;56.69
43480;BME280;29067;35.492;-97.520;2023-02-10T06:26:38;98422.75;;;-1.21;59.28
43480;BME280;29067;35.492;-97.520;2023-02-10T06:29:06;98419.42;;;-0.24;57.77
43480;BME280;29067;35.492;-97.520;2023-02-10T06:31:34;98427.48;;;-0.83;59.53
43480;BME280;29067;35.492;-97.520;2023-02-10T06:34:02;98436.00;;;-0.17;60.98
43480;BME280;29067;35.492;-97.520;2023-02-10T06:36:30;98438.18;;;-0.26;60.83
43480;BME280;29067;35.492;-97.520;2023-02-10T06:38:58;98446.07;;;-1.56;62.72
43480;BME280;29067;35.492;-97.520;2023-02-10T06:41:27;98454.30;;;-0.31;62.47
43480;BME280;29067;35.492;-97.520;2023-02-10T06:43:56;98463.28;;;-1.62;66.89
43480;BME280;29067;35.492;-97.520;2023-02-10T06:46:25;98454.72;;;-0.61;65.76
43480;BME280;29067;35.492;-97.520;2023-02-10T06:48:53;98448.02;;;-0.14;64.12
43480;BME280;29067;35.492;-97.520;2023-02-10T06:51:21;98446.96;;;-0.40;63.75
43480;BME280;29067;35.492;-97.520;2023-02-10T06:53:49;98452.73;;;-0.30;64.30
43480;BME280;29067;35.492;-97.520;2023-02-10T06:56:18;98447.94;;;0.45;63.69
43480;BME280;29067;35.492;-97.520;2023-02-10T06:58:45;98447.84;;;0.28;63.18
43480;BME280;29067;35.492;-97.520;2023-02-10T07:01:17;98447.47;;;-0.99;65.02
43480;BME280;29067;35.492;-97.520;2023-02-10T07:03:45;98448.82;;;-0.45;65.17
43480;BME280;29067;35.492;-97.520;2023-02-10T07:06:13;98446.56;;;-0.02;62.44
43480;BME280;29067;35.492;-97.520;2023-02-10T07:08:41;98442.69;;;-0.84;62.84
43480;BME280;29067;35.492;-97.520;2023-02-10T07:11:09;98445.04;;;-1.41;63.32
43480;BME280;29067;35.492;-97.520;2023-02-10T07:13:37;98453.99;;;-1.04;64.53
43480;BME280;29067;35.492;-97.520;2023-02-10T07:16:06;98454.43;;;-1.80;65.24
43480;BME280;29067;35.492;-97.520;2023-02-10T07:18:34;98450.99;;;-2.04;66.80
43480;BME280;29067;35.492;-97.520;2023-02-10T07:21:02;98457.53;;;-1.52;66.60
43480;BME280;29067;35.492;-97.520;2023-02-10T07:23:30;98451.75;;;-2.27;68.21
43480;BME280;29067;35.492;-97.520;2023-02-10T07:25:58;98448.69;;;-2.13;68.56
43480;BME280;29067;35.492;-97.520;2023-02-10T07:28:26;98453.64;;;-2.42;68.06
43480;BME280;29067;35.492;-97.520;2023-02-10T07:30:55;98444.92;;;-1.34;66.04
43480;BME280;29067;35.492;-97.520;2023-02-10T07:33:22;98450.14;;;-2.62;66.31
43480;BME280;29067;35.492;-97.520;2023-02-10T07:35:50;98460.45;;;-1.90;66.13
43480;BME280;29067;35.492;-97.520;2023-02-10T07:38:19;98461.83;;;-1.46;64.96
43480;BME280;29067;35.492;-97.520;2023-02-10T07:40:47;98458.40;;;-2.16;65.79
43480;BME280;29067;35.492;-97.520;2023-02-10T07:43:15;98467.56;;;-2.48;64.31
43480;BME280;29067;35.492;-97.520;2023-02-10T07:45:44;98464.14;;;-1.98;62.89
43480;BME280;29067;35.492;-97.520;2023-02-10T07:48:13;98469.55;;;-2.86;64.99
43480;BME280;29067;35.492;-97.520;2023-02-10T07:50:42;98467.23;;;-1.70;63.36
43480;BME280;29067;35.492;-97.520;2023-02-10T07:53:10;98467.63;;;-2.38;63.96
43480;BME280;29067;35.492;-97.520;2023-02-10T07:55:38;98464.74;;;-1.35;61.68
43480;BME280;29067;35.492;-97.520;2023-02-10T07:58:06;98472.03;;;-2.29;63.23
43480;BME280;29067;35.492;-97.520;2023-02-10T08:00:35;98474.83;;;-2.14;61.04
43480;BME280;29067;35.492;-97.520;2023-02-10T08:03:03;98477.79;;;-1.80;61.30
43480;BME280;29067;35.492;-97.520;2023-02-10T08:05:31;98477.96;;;-1.77;60.80
43480;BME280;29067;35.492;-97.520;2023-02-10T08:07:59;98475.40;;;-0.42;58.56
43480;BME280;29067;35.492;-97.520;2023-02-10T08:10:32;98485.26;;;-1.20;59.05
43480;BME280;29067;35.492;-97.520;2023-02-10T08:13:01;98483.76;;;-1.46;59.41
43480;BME280;29067;35.492;-97.520;2023-02-10T08:15:29;98486.75;;;-2.23;60.48
43480;BME280;29067;35.492;-97.520;2023-02-10T08:17:59;98495.01;;;-2.69;63.11
43480;BME280;29067;35.492;-97.520;2023-02-10T08:20:27;98500.28;;;-2.88;64.41
43480;BME280;29067;35.492;-97.520;2023-02-10T08:22:56;98494.48;;;-2.57;63.46
43480;BME280;29067;35.492;-97.520;2023-02-10T08:25:24;98497.23;;;-2.43;64.81
43480;BME280;29067;35.492;-97.520;2023-02-10T08:27:52;98492.81;;;-1.99;65.94
43480;BME280;29067;35.492;-97.520;2023-02-10T08:30:20;98495.00;;;-2.85;66.17
43480;BME280;29067;35.492;-97.520;2023-02-10T08:32:48;98495.67;;;-2.73;66.23
43480;BME280;29067;35.492;-97.520;2023-02-10T08:35:16;98494.08;;;-2.92;66.11
43480;BME280;29067;35.492;-97.520;2023-02-10T08:37:44;98488.27;;;-2.43;64.85
43480;BME280;29067;35.492;-97.520;2023-02-10T08:40:12;98490.16;;;-1.99;63.10
43480;BME280;29067;35.492;-97.520;2023-02-10T08:42:40;98489.74;;;-2.32;61.86
43480;BME280;29067;35.492;-97.520;2023-02-10T08:45:09;98485.65;;;-2.87;62.39
43480;BME280;29067;35.492;-97.520;2023-02-10T08:47:38;98477.87;;;-3.07;61.62
43480;BME280;29067;35.492;-97.520;2023-02-10T08:50:07;98475.83;;;-2.78;61.71
43480;BME280;29067;35.492;-97.520;2023-02-10T08:52:35;98480.76;;;-1.72;60.64
43480;BME280;29067;35.492;-97.520;2023-02-10T08:55:03;98478.56;;;-2.53;61.65
43480;BME280;29067;35.492;-97.520;2023-02-10T08:57:32;98481.03;;;-1.51;59.19
43480;BME280;29067;35.492;-97.520;2023-02-10T09:00:00;98482.29;;;-2.19;58.74
43480;BME280;29067;35.492;-97.520;2023-02-10T09:02:28;98482.00;;;-2.15;60.67
43480;BME280;29067;35.492;-97.520;2023-02-10T09:04:57;98482.96;;;-2.56;60.51
43480;BME280;29067;35.492;-97.520;2023-02-10T09:07:25;98484.01;;;-2.18;59.96
43480;BME280;29067;35.492;-97.520;2023-02-10T09:09:53;98481.39;;;-1.88;59.14
43480;BME280;29067;35.492;-97.520;2023-02-10T09:12:21;98480.46;;;-2.52;59.73
43480;BME280;29067;35.492;-97.520;2023-02-10T09:14:50;98479.58;;;-1.23;58.03
43480;BME280;29067;35.492;-97.520;2023-02-10T09:17:17;98481.60;;;-2.37;58.99
43480;BME280;29067;35.492;-97.520;2023-02-10T09:19:46;98478.71;;;-2.85;59.01
43480;BME280;29067;35.492;-97.520;2023-02-10T09:22:14;98477.38;;;-2.13;58.01
43480;BME280;29067;35.492;-97.520;2023-02-10T09:24:42;98478.48;;;-2.05;59.05
43480;BME280;29067;35.492;-97.520;2023-02-10T09:27:10;98474.44;;;-2.48;59.51
43480;BME280;29067;35.492;-97.520;2023-02-10T09:29:38;98474.55;;;-2.35;59.41
43480;BME280;29067;35.492;-97.520;2023-02-10T09:32:06;98473.13;;;-2.30;58.93
43480;BME280;29067;35.492;-97.520;2023-02-10T09:34:34;98471.68;;;-1.80;59.07
43480;BME280;29067;35.492;-97.520;2023-02-10T09:37:03;98474.49;;;-2.04;58.75
43480;BME280;29067;35.492;-97.520;2023-02-10T09:39:32;98480.53;;;-3.11;60.34
43480;BME280;29067;35.492;-97.520;2023-02-10T09:42:07;98482.26;;;-2.04;59.93
43480;BME280;29067;35.492;-97.520;2023-02-10T09:44:40;98478.15;;;-1.73;59.38
43480;BME280;29067;35.492;-97.520;2023-02-10T09:47:23;98476.36;;;-0.82;56.92
43480;BME280;29067;35.492;-97.520;2023-02-10T09:50:07;98475.91;;;-3.40;59.32
43480;BME280;29067;35.492;-97.520;2023-02-10T09:52:50;98475.87;;;-1.99;59.36
43480;BME280;29067;35.492;-97.520;2023-02-10T09:55:27;98477.57;;;-3.09;59.81
43480;BME280;29067;35.492;-97.520;2023-02-10T09:57:59;98470.51;;;-1.29;58.11
43480;BME280;29067;35.492;-97.520;2023-02-10T10:00:30;98468.87;;;-3.06;59.66
43480;BME280;29067;35.492;-97.520;2023-02-10T10:03:00;98469.58;;;-2.83;57.85
43480;BME280;29067;35.492;-97.520;2023-02-10T10:05:39;98472.76;;;-2.83;58.66
43480;BME280;29067;35.492;-97.520;2023-02-10T10:08:18;98469.90;;;-3.70;59.32
43480;BME280;29067;35.492;-97.520;2023-02-10T10:10:49;98469.97;;;-2.80;58.45
43480;BME280;29067;35.492;-97.520;2023-02-10T10:13:23;98472.21;;;-2.06;56.86
43480;BME280;29067;35.492;-97.520;2023-02-10T10:16:05;98476.08;;;-1.81;55.24
43480;BME280;29067;35.492;-97.520;2023-02-10T10:18:43;98479.34;;;-2.40;56.42
43480;BME280;29067;35.492;-97.520;2023-02-10T10:21:22;98480.92;;;-2.58;57.37
43480;BME280;29067;35.492;-97.520;2023-02-10T10:24:03;98479.72;;;-2.43;56.17
43480;BME280;29067;35.492;-97.520;2023-02-10T10:26:45;98476.19;;;-1.25;54.28
43480;BME280;29067;35.492;-97.520;2023-02-10T10:29:23;98479.21;;;-1.88;54.92
43480;BME280;29067;35.492;-97.520;2023-02-10T10:32:03;98482.92;;;-3.25;56.01
43480;BME280;29067;35.492;-97.520;2023-02-10T10:34:31;98485.36;;;-2.40;55.59
43480;BME280;29067;35.492;-97.520;2023-02-10T10:37:12;98486.10;;;-2.77;55.73
43480;BME280;29067;35.492;-97.520;2023-02-10T10:39:44;98493.10;;;-2.82;55.32
43480;BME280;29067;35.492;-97.520;2023-02-10T10:42:19;98493.77;;;-3.07;55.12
43480;BME280;29067;35.492;-97.520;2023-02-10T10:44:50;98497.28;;;-1.94;53.69
43480;BME280;29067;35.492;-97.520;2023-02-10T10:47:25;98502.43;;;-2.02;52.15
43480;BME280;29067;35.492;-97.520;2023-02-10T10:49:58;98507.00;;;-3.23;53.49
43480;BME280;29067;35.492;-97.520;2023-02-10T10:52:30;98508.00;;;-2.66;52.32
43480;BME280;29067;35.492;-97.520;2023-02-10T10:54:58;98511.00;;;-0.98;50.76
43480;BME280;29067;35.492;-97.520;2023-02-10T10:57:29;98511.02;;;-1.98;50.70
43480;BME280;29067;35.492;-97.520;2023-02-10T11:00:05;98515.96;;;-2.85;51.47
43480;BME280;29067;35.492;-97.520;2023-02-10T11:02:52;98522.47;;;-3.11;50.89
43480;BME280;29067;35.492;-97.520;2023-02-10T11:05:20;98521.36;;;-2.50;50.34
43480;BME280;29067;35.492;-97.520;2023-02-10T11:07:50;98519.67;;;-2.27;49.91
43480;BME280;29067;35.492;-97.520;2023-02-10T11:10:25;98523.29;;;-1.53;49.15
43480;BME280;29067;35.492;-97.520;2023-02-10T11:12:54;98527.64;;;-1.35;48.80
43480;BME280;29067;35.492;-97.520;2023-02-10T11:15:30;98528.15;;;-2.05;48.15
43480;BME280;29067;35.492;-97.520;2023-02-10T11:18:00;98536.37;;;-2.88;49.49
43480;BME280;29067;35.492;-97.520;2023-02-10T11:20:32;98535.57;;;-3.05;48.66
43480;BME280;29067;35.492;-97.520;2023-02-10T11:23:13;98534.51;;;-2.32;49.26
43480;BME280;29067;35.492;-97.520;2023-02-10T11:25:45;98542.75;;;-2.93;50.31
43480;BME280;29067;35.492;-97.520;2023-02-10T11:28:19;98546.05;;;-2.82;49.46
43480;BME280;29067;35.492;-97.520;2023-02-10T11:30:55;98549.33;;;-3.64;50.41
43480;BME280;29067;35.492;-97.520;2023-02-10T11:33:26;98545.93;;;-4.12;51.45
43480;BME280;29067;35.492;-97.520;2023-02-10T11:36:04;98544.34;;;-3.62;50.90
43480;BME280;29067;35.492;-97.520;2023-02-10T11:38:34;98542.18;;;-3.93;51.22
43480;BME280;29067;35.492;-97.520;2023-02-10T11:41:06;98550.59;;;-4.58;53.37
43480;BME280;29067;35.492;-97.520;2023-02-10T11:43:39;98558.02;;;-4.75;53.74
43480;BME280;29067;35.492;-97.520;2023-02-10T11:46:23;98553.09;;;-5.31;53.72
43480;BME280;29067;35.492;-97.520;2023-02-10T11:48:54;98554.63;;;-3.97;51.83
43480;BME280;29067;35.492;-97.520;2023-02-10T11:51:24;98556.47;;;-4.02;51.58
43480;BME280;29067;35.492;-97.520;2023-02-10T11:53:53;98561.55;;;-3.59;50.49
43480;BME280;29067;35.492;-97.520;2023-02-10T11:56:25;98561.13;;;-3.22;48.70
43480;BME280;29067;35.492;-97.520;2023-02-10T11:59:05;98567.19;;;-3.90;49.83
43480;BME280;29067;35.492;-97.520;2023-02-10T12:03:43;98562.71;;;-3.63;48.72
43480;BME280;29067;35.492;-97.520;2023-02-10T12:06:18;98576.63;;;-5.18;50.32
43480;BME280;29067;35.492;-97.520;2023-02-10T12:08:53;98575.74;;;-4.11;48.95
43480;BME280;29067;35.492;-97.520;2023-02-10T12:11:27;98578.47;;;-4.73;49.68
43480;BME280;29067;35.492;-97.520;2023-02-10T12:14:03;98579.90;;;-4.70;48.97
43480;BME280;29067;35.492;-97.520;2023-02-10T12:16:41;98585.36;;;-4.97;48.81
43480;BME280;29067;35.492;-97.520;2023-02-10T12:19:23;98583.30;;;-4.87;48.02
43480;BME280;29067;35.492;-97.520;2023-02-10T12:22:03;98590.80;;;-5.32;48.18
43480;BME280;29067;35.492;-97.520;2023-02-10T12:24:42;98593.48;;;-5.11;48.48
43480;BME280;29067;35.492;-97.520;2023-02-10T12:27:17;98600.47;;;-4.94;47.63
43480;BME280;29067;35.492;-97.520;2023-02-10T12:29:57;98608.53;;;-5.21;47.73
43480;BME280;29067;35.492;-97.520;2023-02-10T12:32:38;98607.67;;;-4.82;46.86
43480;BME280;29067;35.492;-97.520;2023-02-10T12:35:22;98620.36;;;-4.91;46.84
43480;BME280;29067;35.492;-97.520;2023-02-10T12:38:02;98613.98;;;-4.33;45.91
43480;BME280;29067;35.492;-97.520;2023-02-10T12:40:51;98621.94;;;-4.45;46.22
43480;BME280;29067;35.492;-97.520;2023-02-10T12:43:33;98628.35;;;-6.01;47.46
43480;BME280;29067;35.492;-97.520;2023-02-10T12:46:13;98623.50;;;-4.03;45.84
43480;BME280;29067;35.492;-97.520;2023-02-10T12:49:05;98623.51;;;-4.25;44.94
43480;BME280;29067;35.492;-97.520;2023-02-10T12:51:54;98628.86;;;-4.97;45.46
43480;BME280;29067;35.492;-97.520;2023-02-10T12:54:29;98631.11;;;-5.78;46.26
43480;BME280;29067;35.492;-97.520;2023-02-10T12:57:04;98631.12;;;-4.88;45.43
43480;BME280;29067;35.492;-97.520;2023-02-10T12:59:38;98634.76;;;-5.48;46.05
43480;BME280;29067;35.492;-97.520;2023-02-10T13:02:16;98639.83;;;-5.28;45.68
43480;BME280;29067;35.492;-97.520;2023-02-10T13:04:50;98641.71;;;-5.08;46.26
43480;BME280;29067;35.492;-97.520;2023-02-10T13:07:29;98650.18;;;-5.94;47.58
43480;BME280;29067;35.492;-97.520;2023-02-10T13:10:14;98647.86;;;-6.41;48.80
43480;BME280;29067;35.492;-97.520;2023-02-10T13:12:47;98643.35;;;-5.87;49.36
43480;BME280;29067;35.492;-97.520;2023-02-10T13:15:21;98645.94;;;-4.62;47.83
43480;BME280;29067;35.492;-97.520;2023-02-10T13:17:51;98652.97;;;-5.57;47.97
43480;BME280;29067;35.492;-97.520;2023-02-10T13:20:28;98653.20;;;-5.52;47.57
43480;BME280;29067;35.492;-97.520;2023-02-10T13:23:06;98658.59;;;-5.69;48.36
43480;BME280;29067;35.492;-97.520;2023-02-10T13:25:50;98664.75;;;-5.59;48.77